Terminal Aerodrome Forecast
Issued by NWS

Home | Current Version | Previous Version | Text Only | Print | Product List | Glossary On
Versions: 1 2 3 4 5 6 7 8 9 10 11 12 13 14 15 16 17 18
000
FTUS46 KSEW 191344 AAA
TAFOLM
TAF AMD
KOLM 191344Z 1914/2012 19004KT P6SM SCT008 OVC022
      TEMPO 1914/1916 BKN009 OVC022
     FM191600 19004KT P6SM SCT022 BKN035
     FM191800 VRB03KT P6SM SCT035
     FM192200 34006KT P6SM SCT050
     FM200500 VRB03KT P6SM SCT250=

USA.gov is the U.S. government's official web portal to all federal, state and local government web resources and services.